Flight Track Log - Related Links

Times and Time Zones

All times are in EDT time to prevent confusion due to time zone crossing. See the N5253C flight status page for this flight to view local times or setup timezone preferences in your user account.


Time Position Orientation Groundspeed Altitude Reporting Facility
EDT Latitude Longitude Course Direction KTS MPH feet Rate Location/Type
Sun 08:28:59 PM 39.7569 -83.9350 North 93 107 4,700  Level Indianapolis Center
Sun 08:30:11 PM 39.7886 -83.9311 North 94 108 5,500 422 Climbing Indianapolis Center
Sun 08:31:07 PM 39.8206 -83.9269 North 127 146 5,600 52 Climbing Indianapolis Center
Sun 08:32:07 PM 39.8544 -83.9203 North 123 142 5,600  Level Indianapolis Center
Sun 08:33:08 PM 39.8883 -83.9167 North 121 139 5,600 -46 Level Indianapolis Center
Sun 08:34:17 PM 39.9236 -83.9092 North 120 138 5,500  Descending Indianapolis Center
Sun 08:35:09 PM 39.9561 -83.9061 North 124 143 5,600 53 Climbing Indianapolis Center
Sun 08:36:10 PM 39.9903 -83.8997 North 121 139 5,600  Level Indianapolis Center
Sun 08:37:11 PM 40.0242 -83.8931 North 121 139 5,600  Level Indianapolis Center
Sun 08:38:11 PM 40.0581 -83.8894 North 116 133 5,600  Level Indianapolis Center
Sun 08:39:12 PM 40.0897 -83.8853 North 115 132 5,600  Level Indianapolis Center
Sun 08:40:07 PM 40.1175 -83.8778 12° North 115 132 5,600 -81 Level Indianapolis Center
Sun 08:40:26 PM 40.1281 -83.8761 North 115 132 5,500  Descending Indianapolis Center
Sun 08:41:08 PM 40.1514 -83.8742 North 115 132 5,600  Climbing Indianapolis Center
Sun 08:41:28 PM 40.1603 -83.8719 11° North 115 132 5,500 -74 Descending Indianapolis Center
Sun 08:42:29 PM 40.1922 -83.8664 North 114 131 5,500 56 Level Indianapolis Center
Sun 08:43:15 PM 40.2192 -83.8636 North 116 133 5,600  Climbing Indianapolis Center
Sun 08:43:30 PM 40.2250 -83.8614 16° North 115 132 5,500  Descending Indianapolis Center
Sun 08:44:10 PM 40.2447 -83.8586 North 113 130 5,600  Climbing Indianapolis Center
Sun 08:44:32 PM 40.2564 -83.8567 North 114 131 5,500 -72 Descending Indianapolis Center
Sun 08:45:33 PM 40.2869 -83.8508 North 112 129 5,500  Level Indianapolis Center
Sun 08:46:35 PM 40.3186 -83.8467 North 112 129 5,500  Level Indianapolis Center
Sun 08:47:36 PM 40.3503 -83.8406 North 113 130 5,500  Level Indianapolis Center
Sun 08:48:38 PM 40.3831 -83.8361 North 115 132 5,500  Level Indianapolis Center
Sun 08:49:39 PM 40.4153 -83.8308 North 115 132 5,500  Level Indianapolis Center
Sun 08:50:40 PM 40.4478 -83.8258 North 116 133 5,500  Level Indianapolis Center
Sun 08:51:42 PM 40.4803 -83.8203 North 116 133 5,500  Level Indianapolis Center
Sun 08:52:43 PM 40.5183 -83.8136 North 117 135 5,500  Level Indianapolis Center
Sun 08:53:45 PM 40.5517 -83.8089 North 118 136 5,500  Level Indianapolis Center
Sun 08:54:46 PM 40.5844 -83.8028 North 118 136 5,500  Level Indianapolis Center
Sun 08:55:47 PM 40.6172 -83.7978 North 118 136 5,500  Level Indianapolis Center
Sun 08:56:49 PM 40.6511 -83.7925 North 119 137 5,500  Level Indianapolis Center
Sun 08:57:50 PM 40.6842 -83.7869 North 118 136 5,500 -49 Level Indianapolis Center
Sun 08:58:52 PM 40.7178 -83.7822 North 120 138 5,400 -49 Descending Indianapolis Center
Sun 08:59:53 PM 40.7497 -83.7756 North 117 135 5,400  Level Indianapolis Center
Sun 09:01:06 PM 40.7828 -83.7700 North 117 135 5,400  Level Indianapolis Center
Sun 09:02:08 PM 40.8203 -83.7644 North 115 132 5,400  Level Indianapolis Center
Sun 09:03:09 PM 40.8528 -83.7589 North 115 132 5,400  Level Indianapolis Center
Sun 09:04:10 PM 40.8836 -83.7539 North 112 129 5,400  Level Indianapolis Center
Sun 09:05:12 PM 40.9200 -83.7483 North 112 129 5,400  Level Indianapolis Center
Sun 09:06:13 PM 40.9511 -83.7431 North 112 129 5,400  Level Indianapolis Center
Sun 09:07:14 PM 40.9828 -83.7383 North 112 129 5,400  Level Indianapolis Center
Sun 09:08:15 PM 41.0139 -83.7331 North 112 129 5,400  Level Indianapolis Center
Sun 09:09:17 PM 41.0453 -83.7283 North 113 130 5,400 49 Level Indianapolis Center
Sun 09:10:18 PM 41.0758 -83.7225 North 112 129 5,500 49 Climbing Indianapolis Center
Sun 09:11:19 PM 41.1069 -83.7172 North 113 130 5,500  Level Indianapolis Center

Login

Don't have an account? Register now (free) for customized features, flight alerts, and more!